Time;durP1;ratioP1;P1;durP2;ratioP2;P2;SDS_P1;SDS_P2;PMS_P1;PMS_P2;Temp;Humidity;BMP_temperature;BMP_pressure;BME280_temperature;BME280_humidity;BME280_pressure;Samples;Min_cycle;Max_cycle;Signal;HPM_P1;HPM_P2
2022/03/28 00:00:34;;;;;;;15.87;3.97;;;10.40;70.40;;;;;;5037054;28;20060;-77
2022/03/28 00:02:59;;;;;;;16.37;3.93;;;10.40;70.80;;;;;;5053599;28;20025;-77
2022/03/28 00:05:25;;;;;;;17.93;3.73;;;10.30;70.80;;;;;;5054934;28;20104;-77
2022/03/28 00:07:50;;;;;;;21.17;4.57;;;10.30;70.90;;;;;;5036871;28;20021;-77
2022/03/28 00:10:16;;;;;;;20.83;4.23;;;10.20;71.40;;;;;;5053447;28;20025;-77
2022/03/28 00:12:42;;;;;;;23.87;5.33;;;10.20;72.00;;;;;;5036795;28;20021;-77
2022/03/28 00:15:09;;;;;;;23.37;4.33;;;10.20;72.10;;;;;;5036746;28;20025;-77
2022/03/28 00:17:36;;;;;;;21.47;4.20;;;10.20;72.60;;;;;;5052940;28;20024;-77
2022/03/28 00:20:06;;;;;;;15.70;4.30;;;10.10;72.20;;;;;;5054254;28;20032;-77
2022/03/28 00:22:32;;;;;;;23.13;4.17;;;10.10;72.50;;;;;;5053173;28;20021;-77
2022/03/28 00:24:57;;;;;;;23.90;4.33;;;10.00;72.70;;;;;;5053190;28;20126;-77
2022/03/28 00:27:23;;;;;;;16.57;3.87;;;10.00;72.80;;;;;;5036485;28;20057;-77
2022/03/28 00:29:48;;;;;;;23.27;4.03;;;9.90;72.70;;;;;;5036427;28;20123;-77
2022/03/28 00:32:14;;;;;;;25.47;5.03;;;9.80;72.80;;;;;;5053019;28;20039;-77
2022/03/28 00:34:40;;;;;;;21.50;4.53;;;9.90;73.00;;;;;;5036514;28;20029;-77
2022/03/28 00:37:07;;;;;;;16.67;4.43;;;9.80;73.40;;;;;;5052972;28;20021;-77
2022/03/28 00:39:33;;;;;;;18.30;4.37;;;9.80;73.20;;;;;;5052836;28;20439;-77
2022/03/28 00:41:58;;;;;;;16.87;4.80;;;9.80;73.40;;;;;;5054268;28;20033;-77
2022/03/28 00:44:24;;;;;;;18.90;4.30;;;9.70;73.50;;;;;;5039410;28;20025;-77
2022/03/28 00:46:50;;;;;;;18.97;4.43;;;9.70;73.70;;;;;;5056015;28;20504;-77
2022/03/28 00:49:16;;;;;;;14.60;3.97;;;9.60;73.80;;;;;;5039193;28;20033;-77
2022/03/28 00:51:43;;;;;;;23.60;4.23;;;9.60;73.80;;;;;;5073614;28;20028;-77
2022/03/28 00:54:09;;;;;;;17.93;3.83;;;9.80;74.10;;;;;;5055715;28;20575;-77
2022/03/28 00:56:37;;;;;;;26.20;4.37;;;9.60;74.10;;;;;;5073715;28;20024;-77
2022/03/28 00:59:04;;;;;;;18.20;3.80;;;9.60;74.20;;;;;;5073777;28;20077;-77
2022/03/28 01:01:30;;;;;;;21.50;3.87;;;9.60;74.60;;;;;;5073649;28;20487;-77
2022/03/28 01:03:56;;;;;;;23.60;4.77;;;9.60;74.70;;;;;;5073940;28;20067;-77
2022/03/28 01:06:22;;;;;;;18.73;3.47;;;9.50;74.70;;;;;;5055690;28;20028;-77
2022/03/28 01:08:49;;;;;;;18.00;3.70;;;9.40;75.00;;;;;;5073421;28;20056;-77
2022/03/28 01:11:16;;;;;;;16.67;4.33;;;9.40;74.80;;;;;;5055497;28;20027;-77
2022/03/28 01:13:42;;;;;;;15.40;3.53;;;9.40;75.00;;;;;;5073415;28;20087;-77
2022/03/28 01:16:09;;;;;;;19.57;3.87;;;9.30;75.00;;;;;;5073501;28;20469;-77
2022/03/28 01:18:35;;;;;;;20.63;3.80;;;9.30;75.20;;;;;;5073223;28;20026;-77
2022/03/28 01:21:02;;;;;;;15.87;4.43;;;9.20;75.30;;;;;;5073386;28;20473;-77
2022/03/28 01:23:28;;;;;;;19.60;3.87;;;9.20;75.50;;;;;;5038794;28;20082;-77
2022/03/28 01:25:56;;;;;;;21.33;3.97;;;9.20;75.70;;;;;;5073408;28;20044;-78
2022/03/28 01:28:24;;;;;;;25.50;5.47;;;9.10;75.80;;;;;;5073267;28;20020;-77
2022/03/28 01:30:50;;;;;;;20.43;4.23;;;9.10;76.40;;;;;;5073212;28;20093;-77
2022/03/28 01:33:16;;;;;;;24.40;5.03;;;9.10;76.30;;;;;;5073305;28;20056;-77
2022/03/28 01:35:44;;;;;;;16.33;4.30;;;9.00;76.40;;;;;;5072775;28;20439;-77
2022/03/28 01:38:12;;;;;;;15.37;3.60;;;9.00;76.80;;;;;;5055464;28;20021;-77
2022/03/28 01:40:40;;;;;;;19.93;3.30;;;9.00;77.60;;;;;;5055247;28;20017;-77
2022/03/28 01:43:07;;;;;;;21.33;4.57;;;8.90;77.10;;;;;;5054956;28;20793;-77
2022/03/28 01:45:32;;;;;;;18.07;4.57;;;8.90;77.50;;;;;;5055495;28;20461;-77
2022/03/28 01:47:58;;;;;;;16.07;3.40;;;8.90;77.90;;;;;;5073135;28;20108;-77
2022/03/28 01:50:25;;;;;;;19.73;4.13;;;8.80;77.80;;;;;;5073151;28;20476;-77
2022/03/28 01:52:51;;;;;;;20.67;4.40;;;8.80;77.80;;;;;;5054872;28;20013;-77
2022/03/28 01:55:17;;;;;;;22.87;5.20;;;8.70;78.20;;;;;;5055207;28;20048;-77
2022/03/28 01:57:44;;;;;;;22.30;5.00;;;8.80;78.40;;;;;;5054921;28;20043;-77
2022/03/28 02:00:15;;;;;;;16.20;3.70;;;8.60;78.30;;;;;;5054840;28;20476;-77
2022/03/28 02:02:42;;;;;;;20.00;3.93;;;8.60;78.30;;;;;;5054845;28;20078;-77
2022/03/28 02:05:12;;;;;;;20.17;4.00;;;8.60;78.40;;;;;;5038663;28;20057;-77
2022/03/28 02:07:42;;;;;;;19.83;4.60;;;8.50;78.60;;;;;;5054875;28;20024;-77
2022/03/28 02:10:09;;;;;;;20.63;4.47;;;8.40;78.70;;;;;;5054763;28;20115;-77
2022/03/28 02:12:35;;;;;;;22.07;4.17;;;8.50;78.90;;;;;;5054966;28;20032;-77
2022/03/28 02:15:06;;;;;;;19.93;4.67;;;8.50;79.00;;;;;;5072779;28;20016;-77
2022/03/28 02:17:35;;;;;;;20.43;4.60;;;8.50;79.20;;;;;;5038645;28;20490;-77
2022/03/28 02:20:02;;;;;;;20.57;4.90;;;8.50;79.40;;;;;;5072728;28;20047;-77
2022/03/28 02:22:28;;;;;;;19.40;5.40;;;8.40;79.30;;;;;;5072805;28;20477;-77
2022/03/28 02:24:53;;;;;;;20.73;4.53;;;8.40;79.20;;;;;;5054986;28;20027;-77
2022/03/28 02:27:19;;;;;;;24.80;5.53;;;8.40;79.50;;;;;;5054979;28;20025;-77
2022/03/28 02:29:44;;;;;;;19.97;4.80;;;8.40;79.60;;;;;;5054671;28;20063;-77
2022/03/28 02:32:12;;;;;;;17.33;4.90;;;8.40;79.70;;;;;;5054486;28;20119;-77
2022/03/28 02:34:38;;;;;;;26.60;5.70;;;8.40;80.10;;;;;;5054672;28;20028;-77
2022/03/28 02:37:03;;;;;;;21.97;5.20;;;8.30;80.10;;;;;;5038089;28;20365;-77
2022/03/28 02:39:29;;;;;;;23.20;5.97;;;8.30;80.10;;;;;;5054960;28;20033;-77
2022/03/28 02:41:55;;;;;;;16.23;4.53;;;8.30;80.50;;;;;;5054740;28;20040;-77
2022/03/28 02:44:20;;;;;;;26.30;5.10;;;8.30;80.50;;;;;;5054648;28;20485;-77
2022/03/28 02:46:46;;;;;;;20.00;4.60;;;8.30;80.50;;;;;;5038102;28;20082;-77
2022/03/28 02:49:13;;;;;;;25.20;4.93;;;8.10;80.50;;;;;;5075345;28;20039;-77
2022/03/28 02:51:39;;;;;;;20.40;4.90;;;8.20;80.50;;;;;;5058184;28;20020;-76
2022/03/28 02:54:05;;;;;;;19.80;5.20;;;8.10;80.60;;;;;;5042268;28;20020;-77
2022/03/28 02:56:31;;;;;;;23.27;4.93;;;8.10;80.90;;;;;;5058192;28;20381;-76
2022/03/28 02:58:57;;;;;;;21.13;5.53;;;8.10;81.20;;;;;;5041506;28;20171;-77
2022/03/28 03:01:22;;;;;;;17.17;5.10;;;8.10;81.20;;;;;;5041700;28;20098;-77
2022/03/28 03:03:48;;;;;;;14.13;4.17;;;8.00;81.30;;;;;;5041823;28;20615;-77
2022/03/28 03:06:13;;;;;;;18.93;5.23;;;8.00;81.40;;;;;;5076008;28;20149;-77
2022/03/28 03:08:39;;;;;;;26.43;5.57;;;8.00;81.40;;;;;;5075869;28;20036;-76
2022/03/28 03:11:05;;;;;;;19.37;5.07;;;7.90;81.40;;;;;;5041384;28;20024;-77
2022/03/28 03:13:30;;;;;;;20.23;5.53;;;7.90;81.50;;;;;;5057833;28;20028;-76
2022/03/28 03:15:56;;;;;;;19.03;5.43;;;7.90;81.70;;;;;;5041374;28;20036;-77
2022/03/28 03:18:21;;;;;;;21.13;5.77;;;8.00;82.90;;;;;;5041128;28;20032;-77
2022/03/28 03:20:47;;;;;;;18.80;5.03;;;7.90;82.10;;;;;;5041572;28;20131;-77
2022/03/28 03:23:12;;;;;;;26.20;6.40;;;7.80;81.90;;;;;;5057746;28;20031;-77
2022/03/28 03:25:38;;;;;;;16.93;4.90;;;7.80;82.00;;;;;;5057693;28;20056;-77
2022/03/28 03:28:04;;;;;;;17.03;4.70;;;7.80;82.00;;;;;;5041051;28;20473;-76
2022/03/28 03:30:30;;;;;;;19.47;5.30;;;7.80;82.10;;;;;;5057704;28;20034;-77
2022/03/28 03:32:57;;;;;;;20.40;5.50;;;7.70;82.30;;;;;;5075404;28;20385;-76
2022/03/28 03:35:23;;;;;;;18.90;5.53;;;7.70;82.30;;;;;;5057941;28;20565;-76
2022/03/28 03:37:50;;;;;;;16.90;5.60;;;7.60;82.60;;;;;;5057569;28;20109;-76
2022/03/28 03:40:16;;;;;;;16.60;5.13;;;7.60;82.70;;;;;;5041180;28;20465;-76
2022/03/28 03:42:41;;;;;;;20.20;4.73;;;7.60;82.60;;;;;;5057167;28;20044;-76
2022/03/28 03:45:09;;;;;;;17.07;5.37;;;7.60;82.70;;;;;;5057419;28;20054;-77
2022/03/28 03:47:35;;;;;;;21.20;5.03;;;7.60;82.80;;;;;;5057213;28;20388;-77
2022/03/28 03:50:02;;;;;;;16.23;4.57;;;7.50;82.90;;;;;;5040674;28;20036;-77
2022/03/28 03:52:27;;;;;;;28.97;6.10;;;7.50;83.10;;;;;;5057011;28;20385;-76
2022/03/28 03:54:53;;;;;;;22.80;5.70;;;7.50;83.10;;;;;;5040488;28;20029;-76
2022/03/28 03:57:19;;;;;;;15.17;4.67;;;7.60;83.20;;;;;;5040554;28;20025;-76
2022/03/28 03:59:45;;;;;;;17.60;5.90;;;7.40;83.20;;;;;;5057033;28;20036;-77
2022/03/28 04:02:11;;;;;;;16.50;4.77;;;7.30;83.10;;;;;;5023984;28;20031;-77
2022/03/28 04:04:36;;;;;;;18.13;5.17;;;7.30;83.30;;;;;;5056576;28;20066;-76
2022/03/28 04:07:02;;;;;;;17.87;5.43;;;7.30;83.50;;;;;;5056893;28;20048;-77
2022/03/28 04:09:28;;;;;;;17.37;5.37;;;7.20;83.60;;;;;;5057190;28;20028;-77
2022/03/28 04:11:54;;;;;;;16.70;5.53;;;7.20;83.80;;;;;;5040123;28;20028;-76
2022/03/28 04:14:19;;;;;;;15.57;5.57;;;7.20;83.80;;;;;;5056706;28;20036;-77
2022/03/28 04:16:45;;;;;;;16.77;5.23;;;7.10;83.80;;;;;;5074376;28;20538;-77
2022/03/28 04:19:11;;;;;;;19.77;5.83;;;7.10;83.90;;;;;;5056887;28;20033;-76
2022/03/28 04:21:37;;;;;;;21.73;5.37;;;7.10;83.90;;;;;;5040159;28;20499;-76
2022/03/28 04:24:03;;;;;;;17.50;5.17;;;7.20;84.10;;;;;;5039946;28;20033;-76
2022/03/28 04:26:28;;;;;;;13.30;5.13;;;7.00;84.10;;;;;;5039907;28;20052;-76
2022/03/28 04:28:54;;;;;;;20.23;6.17;;;7.00;84.30;;;;;;5074310;28;20056;-77
2022/03/28 04:31:19;;;;;;;23.00;5.30;;;7.00;84.30;;;;;;5039678;28;20392;-77
2022/03/28 04:33:45;;;;;;;18.97;5.63;;;7.00;84.40;;;;;;5039726;28;20025;-77
2022/03/28 04:36:10;;;;;;;21.10;6.10;;;7.00;84.70;;;;;;5080140;28;20028;-77
2022/03/28 04:38:37;;;;;;;14.73;5.67;;;6.90;85.00;;;;;;5067692;28;20040;-78
2022/03/28 04:41:03;;;;;;;20.57;5.97;;;6.90;85.10;;;;;;5056965;28;20028;-77
2022/03/28 04:43:28;;;;;;;22.77;6.57;;;6.90;85.60;;;;;;5080543;28;20040;-76
2022/03/28 04:45:54;;;;;;;20.60;6.20;;;6.90;85.80;;;;;;5063549;28;20024;-77
2022/03/28 04:48:20;;;;;;;20.17;6.53;;;6.90;86.30;;;;;;5075969;28;20411;-77
2022/03/28 04:50:46;;;;;;;20.40;6.53;;;6.70;86.50;;;;;;5075928;28;20081;-76
2022/03/28 04:53:12;;;;;;;18.53;6.43;;;6.80;86.20;;;;;;5094260;28;20030;-76
2022/03/28 04:55:38;;;;;;;19.23;6.37;;;6.90;86.20;;;;;;5094037;28;20103;-76
2022/03/28 04:58:04;;;;;;;17.80;6.60;;;6.70;86.00;;;;;;5075724;28;20031;-76
2022/03/28 05:00:30;;;;;;;18.17;5.70;;;6.70;87.10;;;;;;5042721;28;20091;-77
2022/03/28 05:02:57;;;;;;;22.80;6.93;;;6.70;86.90;;;;;;5075908;28;20020;-77
2022/03/28 05:05:23;;;;;;;20.40;5.80;;;6.70;86.90;;;;;;5093795;28;20024;-77
2022/03/28 05:07:48;;;;;;;17.73;6.80;;;6.70;87.70;;;;;;5059231;28;20039;-76
2022/03/28 05:10:14;;;;;;;14.43;5.50;;;6.70;86.80;;;;;;5093466;28;20088;-77
2022/03/28 05:12:40;;;;;;;20.67;6.60;;;6.70;86.60;;;;;;5058636;28;20421;-77
2022/03/28 05:15:06;;;;;;;17.17;6.07;;;6.60;86.40;;;;;;5093687;28;20150;-77
2022/03/28 05:17:32;;;;;;;19.27;6.13;;;6.60;87.20;;;;;;5076033;28;20073;-76
2022/03/28 05:19:59;;;;;;;13.90;5.67;;;6.50;86.70;;;;;;5076060;28;20427;-76
2022/03/28 05:22:25;;;;;;;19.53;6.13;;;6.50;87.00;;;;;;5093600;28;20119;-76
2022/03/28 05:24:53;;;;;;;15.50;6.40;;;6.50;87.10;;;;;;5093588;28;20020;-76
2022/03/28 05:27:20;;;;;;;16.60;5.40;;;6.60;87.30;;;;;;5075507;28;20020;-77
2022/03/28 05:29:47;;;;;;;20.83;6.83;;;6.50;87.20;;;;;;5058768;28;20472;-77
2022/03/28 05:32:13;;;;;;;18.57;7.30;;;6.40;87.20;;;;;;5075516;28;20028;-78
2022/03/28 05:34:39;;;;;;;15.33;5.60;;;6.40;87.40;;;;;;5093441;28;20110;-77
2022/03/28 05:37:09;;;;;;;24.13;6.40;;;6.40;87.50;;;;;;5093266;28;20441;-76
2022/03/28 05:39:36;;;;;;;15.13;6.30;;;6.40;87.70;;;;;;5093280;28;20032;-76
2022/03/28 05:42:03;;;;;;;19.43;6.73;;;6.50;87.80;;;;;;5075180;28;20024;-76
2022/03/28 05:44:30;;;;;;;14.93;5.87;;;6.40;87.70;;;;;;5074940;28;20453;-76
2022/03/28 05:46:56;;;;;;;20.43;6.70;;;6.40;87.80;;;;;;5075057;28;20012;-77
2022/03/28 05:49:24;;;;;;;17.70;6.50;;;6.40;87.90;;;;;;5041647;28;20089;-77
2022/03/28 05:51:50;;;;;;;15.77;6.47;;;6.40;88.00;;;;;;5075516;28;20028;-77
2022/03/28 05:54:16;;;;;;;17.40;6.33;;;6.30;88.10;;;;;;5075268;28;20032;-77
2022/03/28 05:56:42;;;;;;;19.57;6.13;;;6.30;88.20;;;;;;5093024;28;20109;-78
2022/03/28 05:59:07;;;;;;;22.63;6.83;;;6.30;88.60;;;;;;5074899;28;20071;-79
2022/03/28 06:01:34;;;;;;;20.37;7.00;;;6.20;88.50;;;;;;5075082;28;20032;-79
2022/03/28 06:04:00;;;;;;;22.67;7.17;;;6.20;88.70;;;;;;5075039;28;20016;-79
2022/03/28 06:06:26;;;;;;;14.57;6.47;;;6.20;88.80;;;;;;5058293;28;20031;-78
2022/03/28 06:08:53;;;;;;;21.77;6.93;;;6.20;89.00;;;;;;5093031;28;20032;-79
2022/03/28 06:11:18;;;;;;;20.37;7.67;;;6.20;89.00;;;;;;5075163;28;20112;-79
2022/03/28 06:13:44;;;;;;;15.47;6.47;;;6.20;89.30;;;;;;5075560;28;20052;-76
2022/03/28 06:16:10;;;;;;;18.30;7.77;;;6.30;89.40;;;;;;5075362;28;20156;-78
2022/03/28 06:18:35;;;;;;;19.00;6.77;;;6.20;89.40;;;;;;5092963;28;20035;-79
2022/03/28 06:21:01;;;;;;;18.83;7.53;;;6.30;89.50;;;;;;5093272;28;20058;-76
2022/03/28 06:23:27;;;;;;;16.87;7.57;;;6.30;90.00;;;;;;5076925;28;20039;-77
2022/03/28 06:25:52;;;;;;;15.97;7.80;;;6.30;90.00;;;;;;5079047;28;20055;-77
2022/03/28 06:28:18;;;;;;;17.47;7.63;;;6.40;90.10;;;;;;5058936;28;20171;-76
2022/03/28 06:30:44;;;;;;;21.77;7.53;;;6.40;89.90;;;;;;5073116;28;20040;-79
2022/03/28 06:33:10;;;;;;;18.60;7.17;;;6.40;89.80;;;;;;5052304;28;20136;-79
2022/03/28 06:35:36;;;;;;;16.80;6.77;;;6.40;89.60;;;;;;5058961;28;20032;-75
2022/03/28 06:38:02;;;;;;;15.57;6.40;;;6.50;89.50;;;;;;5026352;28;20025;-75
2022/03/28 06:40:28;;;;;;;18.90;7.63;;;6.40;89.40;;;;;;5042052;28;20074;-77
2022/03/28 06:42:53;;;;;;;13.77;6.83;;;6.50;89.50;;;;;;5041898;28;20079;-76
2022/03/28 06:45:20;;;;;;;19.57;8.00;;;6.50;89.60;;;;;;5058593;28;20024;-76
2022/03/28 06:47:50;;;;;;;18.57;7.43;;;6.50;89.80;;;;;;5076623;28;20063;-76
2022/03/28 06:50:16;;;;;;;18.63;7.63;;;6.60;89.70;;;;;;5059503;28;20453;-77
2022/03/28 06:52:42;;;;;;;19.47;7.67;;;6.60;89.80;;;;;;5058574;28;20040;-76
2022/03/28 06:55:08;;;;;;;16.10;6.73;;;6.60;89.80;;;;;;5025292;28;20029;-77
2022/03/28 06:57:33;;;;;;;16.20;6.93;;;6.70;89.80;;;;;;5041619;28;20044;-76
2022/03/28 06:59:59;;;;;;;18.63;8.20;;;6.70;89.70;;;;;;5025232;28;20051;-76
2022/03/28 07:02:25;;;;;;;17.07;6.90;;;6.70;89.70;;;;;;5061147;28;20024;-79
2022/03/28 07:04:50;;;;;;;18.30;7.80;;;6.80;89.90;;;;;;5057984;28;20106;-79
2022/03/28 07:07:16;;;;;;;16.10;6.77;;;6.90;89.80;;;;;;5043255;28;20029;-79
2022/03/28 07:09:41;;;;;;;17.20;7.60;;;6.80;89.70;;;;;;5061371;28;20457;-77
2022/03/28 07:12:09;;;;;;;18.50;7.13;;;6.90;90.20;;;;;;5078093;28;20043;-76
2022/03/28 07:14:35;;;;;;;16.90;8.43;;;6.90;90.00;;;;;;5078062;28;20077;-77
2022/03/28 07:17:01;;;;;;;14.87;7.03;;;7.00;90.00;;;;;;5047598;28;20037;-77
2022/03/28 07:19:27;;;;;;;16.13;7.40;;;7.00;89.90;;;;;;5075991;28;20036;-77
2022/03/28 07:21:54;;;;;;;17.17;7.80;;;7.10;90.00;;;;;;5057770;28;20111;-76
2022/03/28 07:24:20;;;;;;;17.03;8.33;;;7.20;90.10;;;;;;5057613;28;20029;-76
2022/03/28 07:26:48;;;;;;;14.77;7.73;;;7.20;90.20;;;;;;5057757;28;20020;-76
2022/03/28 07:29:17;;;;;;;18.73;8.53;;;7.30;90.00;;;;;;5058379;28;20032;-75
2022/03/28 07:31:46;;;;;;;19.70;7.67;;;7.30;90.00;;;;;;5057763;28;20032;-75
2022/03/28 07:34:30;;;;;;;14.33;7.40;;;7.40;90.30;;;;;;5075170;28;20419;-76
2022/03/28 07:37:05;;;;;;;15.20;7.65;;;7.40;90.10;;;;;;5043959;28;20028;-77
2022/03/28 07:39:34;;;;;;;17.53;8.43;;;7.50;90.20;;;;;;5057340;28;20481;-76
2022/03/28 07:42:00;;;;;;;12.27;6.37;;;7.60;90.30;;;;;;5075500;28;20524;-75
2022/03/28 07:44:26;;;;;;;13.23;6.40;;;7.60;90.30;;;;;;5040762;28;20131;-76
2022/03/28 07:46:51;;;;;;;21.67;8.00;;;7.80;90.50;;;;;;5047872;28;20111;-74
2022/03/28 07:49:17;;;;;;;20.07;9.77;;;7.80;90.60;;;;;;5057123;28;20416;-74
2022/03/28 07:51:43;;;;;;;23.43;10.07;;;7.80;90.60;;;;;;5040477;28;20036;-75
2022/03/28 07:54:09;;;;;;;15.73;8.60;;;7.90;90.60;;;;;;5057575;28;20481;-75
2022/03/28 07:56:35;;;;;;;16.47;8.17;;;8.00;90.60;;;;;;5057164;28;20060;-75
2022/03/28 07:59:01;;;;;;;20.13;8.50;;;8.10;90.90;;;;;;5056924;28;20028;-72
2022/03/28 08:01:27;;;;;;;19.77;10.10;;;8.20;90.60;;;;;;5078028;28;20043;-73
2022/03/28 08:03:53;;;;;;;18.00;9.43;;;8.20;90.50;;;;;;5076862;28;20023;-72
2022/03/28 08:06:19;;;;;;;15.93;9.27;;;8.30;90.50;;;;;;5076955;28;20384;-74
2022/03/28 08:08:44;;;;;;;16.57;9.10;;;8.40;90.40;;;;;;5077022;28;20112;-76
2022/03/28 08:11:10;;;;;;;16.93;9.63;;;8.50;90.40;;;;;;5060581;28;20399;-75
2022/03/28 08:13:36;;;;;;;17.80;10.23;;;8.50;90.30;;;;;;5075753;28;20028;-75
2022/03/28 08:16:04;;;;;;;20.80;12.20;;;8.50;90.20;;;;;;5092969;28;20031;-74
2022/03/28 08:18:30;;;;;;;20.43;11.40;;;8.70;90.20;;;;;;5087879;28;20043;-75
2022/03/28 08:20:56;;;;;;;21.50;11.40;;;8.60;90.00;;;;;;5050643;28;20357;-75
2022/03/28 08:23:22;;;;;;;20.87;11.67;;;8.80;90.00;;;;;;5059522;28;20048;-75
2022/03/28 08:25:49;;;;;;;25.97;13.17;;;8.80;90.20;;;;;;5039938;28;20024;-75
2022/03/28 08:28:15;;;;;;;23.53;12.17;;;8.80;89.60;;;;;;5080084;28;20028;-72
2022/03/28 08:30:41;;;;;;;27.83;11.93;;;9.10;90.00;;;;;;5039932;28;20025;-75
2022/03/28 08:33:07;;;;;;;19.40;10.83;;;9.10;89.40;;;;;;5075067;28;20109;-75
2022/03/28 08:35:33;;;;;;;21.33;11.57;;;9.20;89.40;;;;;;5074401;28;20029;-74
2022/03/28 08:37:59;;;;;;;29.20;12.00;;;9.20;89.10;;;;;;5056095;28;20037;-74
2022/03/28 08:40:25;;;;;;;22.23;11.63;;;9.30;89.00;;;;;;5055926;28;20047;-74
2022/03/28 08:42:53;;;;;;;21.10;11.77;;;9.30;88.80;;;;;;5073890;28;20101;-74
2022/03/28 08:45:19;;;;;;;20.07;11.23;;;9.40;88.60;;;;;;5039443;28;20095;-76
2022/03/28 08:47:47;;;;;;;18.77;10.30;;;9.50;89.10;;;;;;5056262;28;20033;-77
2022/03/28 08:50:14;;;;;;;23.17;11.30;;;9.50;88.30;;;;;;5055907;28;20036;-77
2022/03/28 08:52:41;;;;;;;18.67;12.00;;;9.60;88.10;;;;;;5073741;28;20051;-77
2022/03/28 08:55:10;;;;;;;21.73;12.90;;;9.60;87.70;;;;;;5073742;28;20025;-77
2022/03/28 08:57:37;;;;;;;19.70;11.03;;;9.70;87.60;;;;;;5055842;28;20029;-77
2022/03/28 09:00:12;;;;;;;19.27;11.37;;;9.80;87.50;;;;;;5055794;28;20043;-77
2022/03/28 09:02:42;;;;;;;17.77;10.77;;;9.90;87.30;;;;;;5055652;28;20043;-77
2022/03/28 09:05:11;;;;;;;20.07;11.10;;;9.90;87.70;;;;;;5073668;28;20085;-75
2022/03/28 09:07:37;;;;;;;18.93;11.13;;;10.00;87.00;;;;;;5039049;28;20078;-75
2022/03/28 09:10:15;;;;;;;21.13;11.70;;;10.10;86.80;;;;;;5073611;28;20486;-75
2022/03/28 09:13:06;;;;;;;17.00;10.83;;;10.10;86.40;;;;;;5055331;28;20400;-75
2022/03/28 09:15:55;;;;;;;17.20;11.50;;;10.20;86.20;;;;;;5055274;28;20020;-75
2022/03/28 09:18:34;;;;;;;17.53;10.97;;;10.30;86.00;;;;;;5055059;28;20064;-75
2022/03/28 09:21:14;;;;;;;20.57;10.23;;;10.40;85.80;;;;;;5073177;28;20086;-75
2022/03/28 09:23:45;;;;;;;18.70;11.00;;;10.50;85.70;;;;;;5055222;28;20017;-75
2022/03/28 09:26:23;;;;;;;17.27;9.83;;;10.50;85.60;;;;;;5073347;28;20025;-75
2022/03/28 09:28:58;;;;;;;19.93;11.10;;;10.60;85.50;;;;;;5055635;28;20024;-77
2022/03/28 09:31:25;;;;;;;18.10;10.48;;;10.70;85.30;;;;;;5055240;28;20024;-77
2022/03/28 09:33:51;;;;;;;18.38;10.40;;;10.80;85.10;;;;;;5073458;28;20037;-77
2022/03/28 09:36:17;;;;;;;17.80;11.57;;;10.90;84.90;;;;;;5055699;28;20040;-77
2022/03/28 09:38:56;;;;;;;17.70;11.10;;;11.00;84.70;;;;;;5055239;28;20432;-77
2022/03/28 09:41:27;;;;;;;18.30;11.25;;;11.10;84.40;;;;;;5038933;28;20064;-76
2022/03/28 09:43:54;;;;;;;16.45;10.25;;;11.10;84.20;;;;;;5055383;28;20051;-75
2022/03/28 09:46:32;;;;;;;17.38;10.57;;;11.30;84.20;;;;;;5039278;28;20031;-77
2022/03/28 09:48:59;;;;;;;18.88;11.55;;;11.30;84.00;;;;;;5073755;28;20024;-75
2022/03/28 09:51:32;;;;;;;18.58;11.13;;;11.50;83.90;;;;;;5055581;28;20029;-76
2022/03/28 09:53:59;;;;;;;21.65;10.68;;;11.50;83.60;;;;;;5039543;28;20040;-75
2022/03/28 09:56:25;;;;;;;19.15;11.20;;;11.70;83.30;;;;;;5038733;28;20599;-76
2022/03/28 09:58:56;;;;;;;16.85;10.38;;;11.70;83.20;;;;;;5077445;28;20101;-78
2022/03/28 10:01:40;;;;;;;17.15;10.43;;;11.80;82.80;;;;;;5059485;28;20013;-77
2022/03/28 10:04:08;;;;;;;18.23;10.57;;;11.90;82.60;;;;;;5077270;28;20118;-78
2022/03/28 10:06:39;;;;;;;18.50;11.27;;;12.00;82.50;;;;;;5077526;28;20381;-79
2022/03/28 10:09:06;;;;;;;20.13;11.45;;;12.10;82.10;;;;;;5077205;28;20037;-79
2022/03/28 10:11:32;;;;;;;20.50;11.63;;;12.30;81.90;;;;;;5042787;28;20064;-78
2022/03/28 10:13:59;;;;;;;18.52;11.57;;;12.50;81.80;;;;;;5077475;28;20039;-78
2022/03/28 10:16:25;;;;;;;18.33;10.90;;;12.70;81.60;;;;;;5043283;28;20025;-75
2022/03/28 10:18:51;;;;;;;19.73;13.02;;;12.90;81.10;;;;;;5059097;28;20028;-75
2022/03/28 10:21:22;;;;;;;20.00;11.13;;;13.20;80.80;;;;;;5059029;28;20047;-77
2022/03/28 10:24:06;;;;;;;18.90;11.07;;;13.40;80.20;;;;;;5058891;28;20042;-76
2022/03/28 10:26:47;;;;;;;18.98;10.88;;;13.60;79.80;;;;;;5077432;28;20021;-80
2022/03/28 10:29:18;;;;;;;18.58;10.80;;;13.90;79.10;;;;;;5058807;28;20031;-76
2022/03/28 10:31:55;;;;;;;17.83;9.90;;;14.10;78.50;;;;;;5077577;28;20048;-76
2022/03/28 10:34:52;;;;;;;17.65;10.07;;;14.40;77.70;;;;;;5058854;28;20086;-75
2022/03/28 10:37:50;;;;;;;16.83;9.32;;;14.60;76.60;;;;;;5076497;28;20032;-74
2022/03/28 10:40:28;;;;;;;13.43;8.68;;;14.90;76.00;;;;;;5058683;28;20067;-75
2022/03/28 10:43:03;;;;;;;20.77;10.38;;;15.10;75.40;;;;;;5058936;28;20090;-74
2022/03/28 10:46:02;;;;;;;15.05;9.48;;;15.40;75.00;;;;;;5076343;28;20435;-74
2022/03/28 10:48:54;;;;;;;14.25;8.10;;;15.70;73.70;;;;;;5058927;28;20081;-75
2022/03/28 10:51:24;;;;;;;14.63;8.57;;;16.00;73.10;;;;;;5033179;28;20032;-76
2022/03/28 10:53:54;;;;;;;15.18;8.38;;;16.20;72.70;;;;;;5059064;28;20021;-75
2022/03/28 10:56:23;;;;;;;15.20;8.60;;;16.50;72.00;;;;;;5058453;28;20457;-75
2022/03/28 10:58:54;;;;;;;15.70;8.75;;;16.70;71.20;;;;;;5058450;28;20020;-75
2022/03/28 11:01:31;;;;;;;14.27;8.55;;;16.90;70.40;;;;;;5076316;28;20025;-79
2022/03/28 11:04:12;;;;;;;12.55;8.55;;;17.20;69.50;;;;;;5058082;28;20058;-80
2022/03/28 11:06:59;;;;;;;15.63;9.20;;;17.50;68.40;;;;;;5058137;28;20124;-79
2022/03/28 11:09:44;;;;;;;14.18;8.80;;;17.70;67.50;;;;;;5057340;28;20094;-79
2022/03/28 11:12:14;;;;;;;15.18;7.88;;;18.00;66.80;;;;;;5076096;28;20028;-74
2022/03/28 11:14:50;;;;;;;12.07;7.75;;;18.20;66.60;;;;;;5058060;28;20036;-74
2022/03/28 11:17:17;;;;;;;16.48;7.97;;;18.40;65.80;;;;;;5057855;28;20024;-74
2022/03/28 11:20:01;;;;;;;13.88;7.55;;;18.60;65.20;;;;;;5075993;28;20483;-75
2022/03/28 11:22:51;;;;;;;14.63;7.57;;;19.00;64.90;;;;;;5057687;28;20395;-75
2022/03/28 11:25:41;;;;;;;15.38;7.72;;;19.20;63.30;;;;;;5076090;28;20028;-75
2022/03/28 11:28:11;;;;;;;12.07;7.70;;;19.60;62.30;;;;;;5075810;28;20017;-74
2022/03/28 11:30:49;;;;;;;13.45;8.35;;;19.80;62.00;;;;;;5058082;28;20716;-76
2022/03/28 11:33:35;;;;;;;12.05;7.40;;;20.00;60.80;;;;;;5058725;28;20493;-79
2022/03/28 11:36:10;;;;;;;16.13;7.90;;;20.30;60.00;;;;;;5057128;28;20025;-79
2022/03/28 11:38:42;;;;;;;13.55;8.43;;;20.50;60.20;;;;;;5075408;28;20028;-79
2022/03/28 11:41:09;;;;;;;13.50;8.75;;;20.70;58.80;;;;;;5075444;28;20024;-79
2022/03/28 11:43:36;;;;;;;14.05;8.00;;;20.80;58.20;;;;;;5057241;28;20056;-77
2022/03/28 11:46:10;;;;;;;10.95;6.97;;;21.00;57.90;;;;;;5058076;28;20044;-76
2022/03/28 11:48:37;;;;;;;14.68;8.70;;;21.20;57.30;;;;;;5075435;28;20480;-74
2022/03/28 11:51:15;;;;;;;15.93;7.80;;;21.40;56.60;;;;;;5058009;28;20028;-77
2022/03/28 11:53:40;;;;;;;11.35;7.43;;;21.60;55.80;;;;;;5075209;28;20035;-77
2022/03/28 11:56:06;;;;;;;12.07;7.53;;;21.80;55.60;;;;;;5040711;28;20029;-78
2022/03/28 11:58:33;;;;;;;12.48;7.60;;;22.00;55.20;;;;;;5074726;28;20028;-78
2022/03/28 12:01:12;;;;;;;13.23;7.93;;;22.10;54.70;;;;;;5057106;28;20094;-80
2022/03/28 12:03:47;;;;;;;11.60;7.38;;;22.40;53.90;;;;;;5056852;28;20032;-78
2022/03/28 12:06:24;;;;;;;14.63;7.35;;;22.50;53.60;;;;;;5056858;28;20019;-79
2022/03/28 12:08:52;;;;;;;10.75;7.40;;;22.70;53.60;;;;;;5074751;28;20074;-78
2022/03/28 12:11:18;;;;;;;11.77;6.43;;;22.90;52.90;;;;;;5074779;28;20067;-78
2022/03/28 12:13:45;;;;;;;10.40;6.75;;;23.10;53.10;;;;;;5074847;28;20048;-78
2022/03/28 12:16:10;;;;;;;13.02;6.95;;;23.30;52.00;;;;;;5056906;28;20064;-79
2022/03/28 12:18:36;;;;;;;11.32;7.90;;;23.50;51.50;;;;;;5029495;28;20503;-75
2022/03/28 12:21:02;;;;;;;14.68;8.52;;;23.70;51.00;;;;;;5039804;28;20082;-75
2022/03/28 12:23:28;;;;;;;12.57;7.75;;;23.80;50.30;;;;;;5056038;28;20028;-75
2022/03/28 12:25:59;;;;;;;13.57;7.57;;;23.90;49.90;;;;;;5039725;28;20491;-75
2022/03/28 12:28:24;;;;;;;11.38;7.15;;;24.00;49.70;;;;;;5074594;28;20074;-75
2022/03/28 12:30:56;;;;;;;17.23;7.55;;;24.10;49.30;;;;;;5056652;28;20380;-75
2022/03/28 12:33:28;;;;;;;10.40;6.72;;;24.40;49.00;;;;;;5073922;28;20024;-74
2022/03/28 12:35:57;;;;;;;10.43;6.57;;;24.60;48.60;;;;;;5074945;28;20048;-79
2022/03/28 12:38:27;;;;;;;10.95;6.85;;;24.80;48.50;;;;;;5074483;28;20111;-78
2022/03/28 12:40:56;;;;;;;12.90;7.50;;;25.00;47.90;;;;;;5057032;28;20044;-79
2022/03/28 12:43:25;;;;;;;11.18;6.78;;;25.20;47.40;;;;;;5073764;28;20071;-75
2022/03/28 12:46:10;;;;;;;12.23;7.22;;;25.30;47.10;;;;;;5056137;28;20009;-75